createdAt,value
2018-10-19T00:00:35.281Z,77.61
2018-10-19T00:03:04.093Z,78.02
2018-10-19T00:05:32.983Z,77.98
2018-10-19T00:08:01.690Z,78.03
2018-10-19T00:10:30.507Z,78.16
2018-10-19T00:12:59.278Z,78.20
2018-10-19T00:15:28.098Z,77.91
2018-10-19T00:17:56.850Z,78.69
2018-10-19T00:20:25.658Z,78.53
2018-10-19T00:22:54.532Z,78.17
2018-10-19T00:25:23.342Z,78.51
2018-10-19T00:27:52.082Z,78.84
2018-10-19T00:30:20.834Z,78.66
2018-10-19T00:32:49.495Z,78.99
2018-10-19T00:35:18.293Z,79.21
2018-10-19T00:37:47.065Z,79.28
2018-10-19T00:40:15.925Z,79.16
2018-10-19T00:42:44.690Z,78.73
2018-10-19T00:45:13.769Z,78.90
2018-10-19T00:47:42.512Z,79.00
2018-10-19T00:50:11.374Z,79.03
2018-10-19T00:52:40.146Z,79.54
2018-10-19T00:55:09.081Z,79.74
2018-10-19T00:57:37.842Z,79.64
2018-10-19T01:00:06.604Z,80.46
2018-10-19T01:02:35.360Z,80.55
2018-10-19T01:05:04.290Z,80.68
2018-10-19T01:07:33.042Z,80.23
2018-10-19T01:10:01.962Z,80.48
2018-10-19T01:12:30.732Z,80.00
2018-10-19T01:15:00.220Z,80.41
2018-10-19T01:17:28.966Z,80.03
2018-10-19T01:19:57.843Z,80.22
2018-10-19T01:22:26.618Z,80.34
2018-10-19T01:24:55.560Z,80.41
2018-10-19T01:27:24.279Z,80.26
2018-10-19T01:29:53.082Z,80.48
2018-10-19T01:32:21.864Z,80.76
2018-10-19T01:34:50.654Z,80.22
2018-10-19T01:37:19.430Z,80.23
2018-10-19T01:39:48.234Z,80.36
2018-10-19T01:42:17.059Z,80.49
2018-10-19T01:44:45.867Z,80.58
2018-10-19T01:47:14.654Z,80.60
2018-10-19T01:49:43.458Z,80.57
2018-10-19T01:52:12.275Z,80.48
2018-10-19T01:54:41.231Z,80.45
2018-10-19T01:57:10.043Z,80.93
2018-10-19T01:59:38.916Z,81.07
2018-10-19T02:02:07.654Z,80.21
2018-10-19T02:04:36.558Z,81.16
2018-10-19T02:07:05.542Z,81.23
2018-10-19T02:09:34.327Z,81.51
2018-10-19T02:12:03.314Z,81.29
2018-10-19T02:14:32.170Z,81.10
2018-10-19T02:17:01.009Z,81.22
2018-10-19T02:19:29.835Z,81.03
2018-10-19T02:21:58.619Z,81.22
2018-10-19T02:24:27.379Z,81.74
2018-10-19T02:26:56.228Z,81.29
2018-10-19T02:29:25.002Z,81.62
2018-10-19T02:31:53.744Z,81.32
2018-10-19T02:34:22.584Z,81.24
2018-10-19T02:36:51.494Z,81.71
2018-10-19T02:39:20.419Z,81.53
2018-10-19T02:41:49.228Z,81.61
2018-10-19T02:44:17.983Z,81.64
2018-10-19T02:46:46.646Z,81.24
2018-10-19T02:49:15.483Z,80.95
2018-10-19T02:51:44.287Z,81.23
2018-10-19T02:54:13.046Z,81.32
2018-10-19T02:56:41.765Z,81.52
2018-10-19T02:59:10.574Z,81.48
2018-10-19T03:01:39.186Z,80.92
2018-10-19T03:04:07.982Z,80.98
2018-10-19T03:06:36.767Z,81.08
2018-10-19T03:09:08.694Z,81.08
2018-10-19T03:11:37.454Z,81.19
2018-10-19T03:14:06.653Z,81.59
2018-10-19T03:16:35.413Z,81.74
2018-10-19T03:19:04.222Z,81.69
2018-10-19T03:21:32.922Z,81.47
2018-10-19T03:24:01.749Z,81.64
2018-10-19T03:26:30.611Z,81.80
2018-10-19T03:28:59.510Z,81.56
2018-10-19T03:31:28.168Z,81.80
2018-10-19T03:33:56.845Z,82.12
2018-10-19T03:36:25.734Z,81.93
2018-10-19T03:38:54.889Z,81.79
2018-10-19T03:41:23.642Z,82.06
2018-10-19T03:43:52.415Z,82.00
2018-10-19T03:46:21.193Z,82.00
2018-10-19T03:48:49.899Z,81.84
2018-10-19T03:51:18.899Z,81.58
2018-10-19T03:53:47.590Z,81.67
2018-10-19T03:56:16.321Z,81.79
2018-10-19T03:58:45.047Z,81.51
2018-10-19T04:01:13.819Z,81.57
2018-10-19T04:03:42.733Z,81.69
2018-10-19T04:06:11.385Z,81.63
2018-10-19T04:08:40.187Z,81.29
2018-10-19T04:11:09.158Z,81.69
2018-10-19T04:13:37.911Z,82.12
2018-10-19T04:16:06.698Z,82.37
2018-10-19T04:18:35.558Z,82.04
2018-10-19T04:21:04.417Z,82.14
2018-10-19T04:23:33.298Z,82.34
2018-10-19T04:26:02.030Z,82.24
2018-10-19T04:28:30.835Z,82.38
2018-10-19T04:30:59.699Z,82.11
2018-10-19T04:33:28.558Z,82.23
2018-10-19T04:35:57.332Z,82.18
2018-10-19T04:38:26.142Z,82.26
2018-10-19T04:40:54.992Z,82.37
2018-10-19T04:43:23.882Z,82.88
2018-10-19T04:45:52.753Z,82.86
2018-10-19T04:48:21.609Z,82.81
2018-10-19T04:50:50.311Z,82.67
2018-10-19T04:53:19.372Z,82.71
2018-10-19T04:55:48.104Z,82.48
2018-10-19T04:58:17.019Z,82.54
2018-10-19T05:00:45.829Z,82.65
2018-10-19T05:03:14.697Z,82.67
2018-10-19T05:05:43.844Z,82.71
2018-10-19T05:08:12.668Z,83.14
2018-10-19T05:10:41.350Z,83.64
2018-10-19T05:13:10.338Z,83.50
2018-10-19T05:15:39.056Z,83.89
2018-10-19T05:18:07.890Z,84.06
2018-10-19T05:20:36.674Z,83.70
2018-10-19T05:23:06.094Z,83.36
2018-10-19T05:25:34.806Z,82.91
2018-10-19T05:28:03.647Z,82.76
2018-10-19T05:30:32.530Z,82.43
2018-10-19T05:33:01.379Z,82.27
2018-10-19T05:35:30.166Z,82.13
2018-10-19T05:37:59.041Z,81.89
2018-10-19T05:40:27.886Z,81.70
2018-10-19T05:42:56.694Z,81.56
2018-10-19T05:45:25.431Z,81.70
2018-10-19T05:47:54.253Z,81.94
2018-10-19T05:50:23.163Z,81.92
2018-10-19T05:52:51.999Z,81.74
2018-10-19T05:55:20.697Z,81.88
2018-10-19T05:57:49.483Z,81.91
2018-10-19T06:00:18.306Z,81.68
2018-10-19T06:02:47.058Z,81.62
2018-10-19T06:05:15.992Z,81.62
2018-10-19T06:07:44.759Z,81.91
2018-10-19T06:10:13.454Z,82.19
2018-10-19T06:12:42.999Z,81.55
2018-10-19T06:15:11.817Z,81.23
2018-10-19T06:17:40.682Z,80.83
2018-10-19T06:20:09.881Z,80.84
2018-10-19T06:22:38.582Z,80.69
2018-10-19T06:25:07.427Z,81.02
2018-10-19T06:27:36.409Z,80.97
2018-10-19T06:30:06.142Z,80.80
2018-10-19T06:32:34.855Z,80.63
2018-10-19T06:35:03.752Z,81.02
2018-10-19T06:37:32.532Z,80.35
2018-10-19T06:40:01.328Z,80.94
2018-10-19T06:42:30.148Z,81.06
2018-10-19T06:44:59.002Z,81.19
2018-10-19T06:47:27.840Z,81.18
2018-10-19T06:49:56.584Z,80.94
2018-10-19T06:52:25.353Z,81.10
2018-10-19T06:54:54.162Z,81.33
2018-10-19T06:57:23.034Z,80.83
2018-10-19T06:59:51.694Z,80.59
2018-10-19T07:02:20.514Z,80.45
2018-10-19T07:04:49.330Z,80.90
2018-10-19T07:07:18.254Z,80.87
2018-10-19T07:09:47.023Z,80.40
2018-10-19T07:12:15.841Z,80.81
2018-10-19T07:14:44.523Z,80.46
2018-10-19T07:17:13.364Z,80.12
2018-10-19T07:19:42.225Z,79.78
2018-10-19T07:22:11.106Z,80.27
2018-10-19T07:24:39.845Z,79.74
2018-10-19T07:27:08.585Z,79.35
2018-10-19T07:29:37.498Z,79.44
2018-10-19T07:32:06.291Z,79.08
2018-10-19T07:34:34.935Z,78.88
2018-10-19T07:37:03.760Z,79.02
2018-10-19T07:39:32.435Z,78.73
2018-10-19T07:42:01.224Z,78.10
2018-10-19T07:44:30.525Z,78.07
2018-10-19T07:46:59.512Z,78.09
2018-10-19T07:49:28.480Z,77.66
2018-10-19T07:51:57.498Z,77.75
2018-10-19T07:54:26.390Z,77.52
2018-10-19T07:56:55.214Z,77.44
2018-10-19T07:59:23.975Z,76.89
2018-10-19T08:01:52.821Z,76.77
2018-10-19T08:04:21.659Z,76.48
2018-10-19T08:06:50.420Z,76.64
2018-10-19T08:09:19.186Z,76.35
2018-10-19T08:11:48.003Z,76.20
2018-10-19T08:14:17.042Z,76.20
2018-10-19T08:16:46.018Z,74.88
2018-10-19T08:19:14.922Z,74.92
2018-10-19T08:21:43.982Z,73.84
2018-10-19T08:24:12.742Z,73.56
2018-10-19T08:26:41.786Z,73.89
2018-10-19T08:29:10.702Z,74.17
2018-10-19T08:31:39.539Z,74.63
2018-10-19T08:34:08.333Z,75.26
2018-10-19T08:36:37.287Z,74.83
2018-10-19T08:39:08.391Z,74.49
2018-10-19T08:41:37.223Z,74.30
2018-10-19T08:44:05.983Z,74.53
2018-10-19T08:46:39.880Z,73.80
2018-10-19T08:49:10.561Z,74.91
2018-10-19T08:51:40.203Z,73.71
2018-10-19T08:54:09.386Z,73.46
2018-10-19T08:56:38.498Z,73.40
2018-10-19T08:59:07.339Z,72.74
2018-10-19T09:01:36.218Z,72.98
2018-10-19T09:04:05.447Z,71.96
2018-10-19T09:06:34.318Z,71.78
2018-10-19T09:09:03.388Z,71.24
2018-10-19T09:11:32.278Z,71.62
2018-10-19T09:14:01.133Z,70.83
2018-10-19T09:16:29.988Z,70.05
2018-10-19T09:18:58.681Z,69.81
2018-10-19T09:21:27.615Z,70.15
2018-10-19T09:23:56.546Z,69.02
2018-10-19T09:26:25.386Z,69.53
2018-10-19T09:28:54.268Z,68.81
2018-10-19T09:31:23.379Z,67.73
2018-10-19T09:33:52.154Z,67.35
2018-10-19T09:36:21.057Z,67.58
2018-10-19T09:38:49.786Z,67.86
2018-10-19T09:41:18.606Z,67.30
2018-10-19T09:43:47.399Z,66.35
2018-10-19T09:46:16.145Z,66.54
2018-10-19T09:48:45.027Z,66.31
2018-10-19T09:51:13.889Z,65.22
2018-10-19T09:53:42.666Z,65.09
2018-10-19T09:56:11.864Z,65.21
2018-10-19T09:58:40.570Z,64.77
2018-10-19T10:01:14.695Z,63.91
2018-10-19T10:03:43.555Z,63.52
2018-10-19T10:06:12.424Z,64.55
2018-10-19T10:08:41.293Z,64.41
2018-10-19T10:11:10.243Z,63.44
2018-10-19T10:13:39.183Z,63.34
2018-10-19T10:16:08.106Z,62.90
2018-10-19T10:18:37.334Z,63.13
2018-10-19T10:21:06.855Z,62.36
2018-10-19T10:23:35.779Z,61.73
2018-10-19T10:26:04.657Z,61.98
2018-10-19T10:28:33.389Z,62.14
2018-10-19T10:31:02.569Z,61.81
2018-10-19T10:33:31.438Z,61.30
2018-10-19T10:36:00.451Z,61.11
2018-10-19T10:38:29.641Z,61.19
2018-10-19T10:40:58.514Z,60.81
2018-10-19T10:43:27.358Z,60.25
2018-10-19T10:45:56.434Z,60.15
2018-10-19T10:48:25.518Z,59.92
2018-10-19T10:50:55.314Z,58.95
2018-10-19T10:53:24.235Z,58.96
2018-10-19T10:55:53.335Z,58.70
2018-10-19T10:58:22.070Z,58.97
2018-10-19T11:00:50.914Z,58.39
2018-10-19T11:03:19.636Z,58.02
2018-10-19T11:05:49.078Z,58.00
2018-10-19T11:08:17.926Z,58.12
2018-10-19T11:10:47.050Z,57.75
2018-10-19T11:13:15.916Z,57.45
2018-10-19T11:15:44.746Z,56.98
2018-10-19T11:18:13.614Z,56.58
2018-10-19T11:20:42.490Z,56.69
2018-10-19T11:23:11.199Z,55.86
2018-10-19T11:25:40.059Z,56.56
2018-10-19T11:28:08.858Z,56.10
2018-10-19T11:30:37.782Z,55.16
2018-10-19T11:33:06.760Z,55.14
2018-10-19T11:35:35.767Z,54.24
2018-10-19T11:38:04.903Z,53.45
2018-10-19T11:40:36.846Z,52.53
2018-10-19T11:43:06.203Z,53.51
2018-10-19T11:45:36.183Z,52.03
2018-10-19T11:48:05.059Z,51.40
2018-10-19T11:50:34.014Z,50.68
2018-10-19T11:53:02.900Z,50.64
2018-10-19T11:57:59.970Z,47.95
2018-10-19T12:00:28.775Z,47.73
2018-10-19T12:02:57.660Z,46.19
2018-10-19T12:05:26.443Z,46.72
2018-10-19T12:07:55.277Z,45.38
2018-10-19T12:10:24.139Z,45.68
2018-10-19T12:12:53.112Z,44.88
2018-10-19T12:15:21.818Z,44.90
2018-10-19T12:17:50.705Z,43.46
2018-10-19T12:20:20.014Z,43.45
2018-10-19T12:22:48.692Z,42.92
2018-10-19T12:25:18.091Z,42.68
2018-10-19T12:27:46.838Z,41.74
2018-10-19T12:30:15.780Z,40.17
2018-10-19T12:32:44.573Z,39.70
2018-10-19T12:35:14.501Z,39.47
2018-10-19T12:37:43.196Z,38.74
2018-10-19T12:40:12.499Z,37.54
2018-10-19T12:42:41.346Z,36.39
2018-10-19T12:45:21.159Z,35.21
2018-10-19T12:47:49.862Z,35.00
2018-10-19T12:50:18.714Z,35.33
2018-10-19T12:52:47.467Z,34.04
2018-10-19T12:55:16.326Z,34.89
2018-10-19T12:57:45.031Z,36.03
2018-10-19T13:00:14.088Z,34.96
2018-10-19T13:02:42.914Z,33.64
2018-10-19T13:05:11.643Z,34.16
2018-10-19T13:07:40.752Z,33.63
2018-10-19T13:10:09.778Z,33.15
2018-10-19T13:12:38.462Z,33.27
2018-10-19T13:15:07.476Z,32.69
2018-10-19T13:17:36.155Z,31.94
2018-10-19T13:20:04.968Z,32.47
2018-10-19T13:22:33.854Z,32.26
2018-10-19T13:25:02.730Z,31.24
2018-10-19T13:27:31.718Z,32.91
2018-10-19T13:30:00.560Z,33.37
2018-10-19T13:32:29.290Z,32.24
2018-10-19T13:34:58.228Z,30.93
2018-10-19T13:37:27.075Z,30.30
2018-10-19T13:39:55.799Z,30.83
2018-10-19T13:42:24.635Z,31.49
2018-10-19T13:44:53.370Z,31.01
2018-10-19T13:47:22.250Z,32.86
2018-10-19T13:49:57.815Z,32.61
2018-10-19T13:52:26.651Z,34.03
2018-10-19T13:54:55.497Z,35.66
2018-10-19T13:57:24.342Z,36.59
2018-10-19T13:59:53.178Z,37.70
2018-10-19T14:02:22.055Z,37.95
2018-10-19T14:04:51.027Z,39.82
2018-10-19T14:07:19.734Z,40.50
2018-10-19T14:09:48.456Z,40.53
2018-10-19T14:12:17.311Z,41.56
2018-10-19T14:14:46.116Z,42.17
2018-10-19T14:17:15.133Z,43.39
2018-10-19T14:19:43.979Z,44.78
2018-10-19T14:22:12.823Z,45.30
2018-10-19T14:24:41.696Z,45.96
2018-10-19T14:27:10.529Z,46.04
2018-10-19T14:29:39.311Z,47.17
2018-10-19T14:32:08.014Z,47.79
2018-10-19T14:34:36.728Z,47.93
2018-10-19T14:37:05.603Z,47.86
2018-10-19T14:39:34.290Z,48.89
2018-10-19T14:42:04.797Z,49.29
2018-10-19T14:44:33.646Z,50.00
2018-10-19T14:47:02.348Z,50.50
2018-10-19T14:49:31.226Z,51.78
2018-10-19T14:52:00.003Z,51.85
2018-10-19T14:54:28.813Z,51.64
2018-10-19T14:56:57.720Z,51.94
2018-10-19T14:59:26.474Z,51.43
2018-10-19T15:01:55.244Z,52.35
2018-10-19T15:04:24.465Z,53.03
2018-10-19T15:06:53.140Z,53.19
2018-10-19T15:09:22.012Z,53.29
2018-10-19T15:11:50.732Z,53.40
2018-10-19T15:14:19.515Z,53.69
2018-10-19T15:16:48.254Z,54.05
2018-10-19T15:19:17.088Z,53.96
2018-10-19T15:21:45.867Z,54.06
2018-10-19T15:24:15.040Z,54.18
2018-10-19T15:26:43.791Z,54.95
2018-10-19T15:29:12.773Z,55.24
2018-10-19T15:31:41.431Z,55.24
2018-10-19T15:34:10.247Z,55.33
2018-10-19T15:36:39.170Z,55.65
2018-10-19T15:39:10.540Z,55.69
2018-10-19T15:41:39.388Z,56.15
2018-10-19T15:44:08.347Z,56.76
2018-10-19T15:46:37.159Z,56.69
2018-10-19T15:49:06.150Z,56.85
2018-10-19T15:51:34.962Z,56.62
2018-10-19T15:54:04.047Z,57.24
2018-10-19T15:56:33.244Z,57.37
2018-10-19T15:59:02.126Z,57.82
2018-10-19T16:01:30.789Z,57.79
2018-10-19T16:03:59.706Z,58.10
2018-10-19T16:06:28.592Z,58.18
2018-10-19T16:08:57.321Z,58.56
2018-10-19T16:11:26.120Z,58.62
2018-10-19T16:13:54.871Z,59.05
2018-10-19T16:16:23.719Z,58.85
2018-10-19T16:18:52.787Z,59.74
2018-10-19T16:21:21.666Z,60.17
2018-10-19T16:23:50.475Z,60.75
2018-10-19T16:26:19.241Z,60.38
2018-10-19T16:28:48.106Z,60.72
2018-10-19T16:31:16.982Z,61.06
2018-10-19T16:33:45.702Z,61.22
2018-10-19T16:36:14.499Z,61.69
2018-10-19T16:38:43.146Z,62.01
2018-10-19T16:41:12.186Z,62.31
2018-10-19T16:43:40.919Z,62.47
2018-10-19T16:46:09.849Z,62.88
2018-10-19T16:48:38.797Z,62.92
2018-10-19T16:51:07.516Z,63.18
2018-10-19T16:53:36.317Z,62.92
2018-10-19T16:56:05.426Z,63.40
2018-10-19T17:01:02.599Z,63.81
2018-10-19T17:03:31.375Z,63.84
2018-10-19T17:06:00.364Z,64.29
2018-10-19T17:08:29.143Z,64.70
2018-10-19T17:10:57.918Z,64.64
2018-10-19T17:13:26.743Z,64.79
2018-10-19T17:15:55.508Z,65.00
2018-10-19T17:18:24.364Z,65.19
2018-10-19T17:20:53.252Z,65.08
2018-10-19T17:23:22.100Z,65.24
2018-10-19T17:25:50.905Z,65.56
2018-10-19T17:28:19.877Z,65.74
2018-10-19T17:30:48.654Z,65.61
2018-10-19T17:33:17.726Z,65.68
2018-10-19T17:35:46.398Z,66.06
2018-10-19T17:38:15.139Z,66.37
2018-10-19T17:40:43.886Z,66.69
2018-10-19T17:43:12.678Z,66.91
2018-10-19T17:45:41.363Z,66.77
2018-10-19T17:48:10.245Z,67.21
2018-10-19T17:50:38.906Z,67.16
2018-10-19T17:53:07.686Z,67.47
2018-10-19T17:55:36.418Z,67.66
2018-10-19T17:58:05.277Z,67.74
2018-10-19T18:00:34.274Z,67.75
2018-10-19T18:03:03.251Z,67.81
2018-10-19T18:05:32.040Z,68.02
2018-10-19T18:08:00.790Z,67.79
2018-10-19T18:10:29.886Z,68.05
2018-10-19T18:12:58.947Z,68.08
2018-10-19T18:15:28.000Z,68.13
2018-10-19T18:17:56.766Z,68.54
2018-10-19T18:20:25.602Z,68.61
2018-10-19T18:22:54.632Z,68.82
2018-10-19T18:25:23.606Z,68.96
2018-10-19T18:27:52.337Z,69.32
2018-10-19T18:30:21.248Z,69.42
2018-10-19T18:32:50.070Z,69.59
2018-10-19T18:35:18.906Z,69.85
2018-10-19T18:37:47.655Z,69.77
2018-10-19T18:40:16.522Z,69.73
2018-10-19T18:42:45.498Z,69.88
2018-10-19T18:45:14.607Z,70.12
2018-10-19T18:47:43.379Z,70.06
2018-10-19T18:50:12.142Z,70.66
2018-10-19T18:52:41.115Z,70.95
2018-10-19T18:55:09.939Z,71.00
2018-10-19T18:57:38.941Z,71.45
2018-10-19T19:00:09.976Z,71.23
2018-10-19T19:02:38.801Z,71.39
2018-10-19T19:05:07.825Z,71.35
2018-10-19T19:07:36.650Z,71.64
2018-10-19T19:10:13.014Z,72.27
2018-10-19T19:12:41.816Z,72.43
2018-10-19T19:15:11.388Z,72.41
2018-10-19T19:17:40.632Z,72.63
2018-10-19T19:20:14.885Z,73.03
2018-10-19T19:22:44.047Z,72.66
2018-10-19T19:25:18.098Z,73.35
2018-10-19T19:27:47.036Z,73.74
2018-10-19T19:30:15.715Z,73.44
2018-10-19T19:32:49.806Z,73.33
2018-10-19T19:35:18.823Z,73.74
2018-10-19T19:37:47.569Z,73.24
2018-10-19T19:40:16.435Z,72.63
2018-10-19T19:42:50.974Z,72.34
2018-10-19T19:45:20.012Z,72.74
2018-10-19T19:47:53.914Z,72.45
2018-10-19T19:50:22.758Z,72.91
2018-10-19T19:52:51.549Z,72.95
2018-10-19T19:55:20.291Z,73.61
2018-10-19T19:57:49.254Z,73.62
2018-10-19T20:00:18.067Z,74.06
2018-10-19T20:02:46.862Z,73.61
2018-10-19T20:05:15.849Z,73.45
2018-10-19T20:07:44.810Z,73.28
2018-10-19T20:10:13.706Z,73.14
2018-10-19T20:12:42.454Z,73.12
2018-10-19T20:15:11.556Z,72.69
2018-10-19T20:17:40.530Z,73.35
2018-10-19T20:20:10.873Z,73.75
2018-10-19T20:22:40.381Z,73.74
2018-10-19T20:25:10.355Z,73.72
2018-10-19T20:27:39.823Z,74.00
2018-10-19T20:30:12.404Z,74.41
2018-10-19T20:32:41.367Z,74.82
2018-10-19T20:35:10.365Z,74.74
2018-10-19T20:37:39.308Z,74.49
2018-10-19T20:40:08.256Z,74.68
2018-10-19T20:42:37.139Z,74.55
2018-10-19T20:45:06.372Z,74.45
2018-10-19T20:47:35.213Z,74.41
2018-10-19T20:50:04.276Z,74.33
2018-10-19T20:52:33.170Z,74.56
2018-10-19T20:55:01.982Z,74.53
2018-10-19T20:57:30.900Z,74.63
2018-10-19T20:59:59.871Z,74.18
2018-10-19T21:02:28.837Z,73.92
2018-10-19T21:04:57.714Z,74.39
2018-10-19T21:07:26.453Z,74.37
2018-10-19T21:09:55.395Z,74.20
2018-10-19T21:12:24.155Z,74.62
2018-10-19T21:14:52.919Z,74.56
2018-10-19T21:17:21.734Z,74.82
2018-10-19T21:19:50.509Z,74.97
2018-10-19T21:22:19.361Z,74.86
2018-10-19T21:24:48.429Z,75.09
2018-10-19T21:27:17.278Z,75.30
2018-10-19T21:29:46.386Z,76.08
2018-10-19T21:32:15.250Z,75.60
2018-10-19T21:34:43.995Z,75.51
2018-10-19T21:37:12.766Z,75.71
2018-10-19T21:39:41.522Z,76.17
2018-10-19T21:42:10.434Z,76.01
2018-10-19T21:44:40.357Z,75.42
2018-10-19T21:47:09.454Z,74.96
2018-10-19T21:49:38.171Z,75.10
2018-10-19T21:52:07.025Z,75.33
2018-10-19T21:54:35.802Z,75.40
2018-10-19T21:57:04.674Z,75.62
2018-10-19T21:59:33.590Z,75.87
2018-10-19T22:02:02.441Z,76.34
2018-10-19T22:04:31.344Z,76.39
2018-10-19T22:07:00.222Z,76.55
2018-10-19T22:09:29.049Z,77.32
2018-10-19T22:11:57.755Z,77.43
2018-10-19T22:14:26.518Z,77.22
2018-10-19T22:16:55.387Z,77.35
2018-10-19T22:19:24.145Z,77.59
2018-10-19T22:21:52.960Z,77.65
2018-10-19T22:24:21.879Z,77.60
2018-10-19T22:26:50.613Z,77.50
2018-10-19T22:29:19.475Z,77.50
2018-10-19T22:31:48.374Z,77.34
2018-10-19T22:34:17.234Z,77.43
2018-10-19T22:36:46.954Z,77.63
2018-10-19T22:39:15.745Z,77.85
2018-10-19T22:41:44.663Z,77.97
2018-10-19T22:44:13.535Z,78.31
2018-10-19T22:46:42.447Z,78.04
2018-10-19T22:49:11.242Z,77.72
2018-10-19T22:51:40.014Z,77.71
2018-10-19T22:54:08.803Z,77.53
2018-10-19T22:56:37.680Z,77.59
2018-10-19T22:59:06.964Z,77.61
2018-10-19T23:04:25.882Z,77.49
2018-10-19T23:06:54.644Z,77.73
2018-10-19T23:09:23.624Z,77.98
2018-10-19T23:11:52.398Z,77.45
2018-10-19T23:14:21.211Z,76.99
2018-10-19T23:16:49.906Z,76.93
2018-10-19T23:19:18.591Z,76.94
2018-10-19T23:21:47.295Z,76.56
2018-10-19T23:24:16.003Z,76.16
2018-10-19T23:26:44.737Z,76.34
2018-10-19T23:29:13.597Z,77.40
2018-10-19T23:31:42.370Z,77.55
2018-10-19T23:34:10.910Z,77.00
2018-10-19T23:36:39.598Z,76.62
2018-10-19T23:39:09.914Z,75.47
2018-10-19T23:41:39.037Z,75.04
2018-10-19T23:44:07.822Z,75.36
2018-10-19T23:46:36.714Z,75.41
2018-10-19T23:49:05.855Z,75.84
2018-10-19T23:51:34.546Z,76.53
2018-10-19T23:54:03.477Z,76.18
2018-10-19T23:56:32.273Z,75.34
2018-10-19T23:59:01.088Z,75.20
